sensor_id;sensor_type;location;lat;lon;timestamp;P1;durP1;ratioP1;P2;durP2;ratioP2
71777;SDS011;59609;52.430;4.668;2022-10-04T00:00:57;9.77;;;5.18;;
71777;SDS011;59609;52.430;4.668;2022-10-04T00:03:36;11.50;;;5.05;;
71777;SDS011;59609;52.430;4.668;2022-10-04T00:06:03;15.52;;;5.35;;
71777;SDS011;59609;52.430;4.668;2022-10-04T00:08:37;10.85;;;4.85;;
71777;SDS011;59609;52.430;4.668;2022-10-04T00:11:13;7.18;;;4.90;;
71777;SDS011;59609;52.430;4.668;2022-10-04T00:13:49;11.27;;;4.68;;
71777;SDS011;59609;52.430;4.668;2022-10-04T00:16:20;8.07;;;4.40;;
71777;SDS011;59609;52.430;4.668;2022-10-04T00:18:59;11.95;;;4.55;;
71777;SDS011;59609;52.430;4.668;2022-10-04T00:29:22;12.63;;;4.43;;
71777;SDS011;59609;52.430;4.668;2022-10-04T00:32:22;11.07;;;4.38;;
71777;SDS011;59609;52.430;4.668;2022-10-04T00:34:44;12.40;;;4.45;;
71777;SDS011;59609;52.430;4.668;2022-10-04T00:37:14;9.07;;;4.25;;
71777;SDS011;59609;52.430;4.668;2022-10-04T00:39:44;14.68;;;4.85;;
71777;SDS011;59609;52.430;4.668;2022-10-04T00:42:31;6.68;;;4.38;;
71777;SDS011;59609;52.430;4.668;2022-10-04T00:47:34;14.43;;;5.03;;
71777;SDS011;59609;52.430;4.668;2022-10-04T00:52:56;12.10;;;5.43;;
71777;SDS011;59609;52.430;4.668;2022-10-04T00:57:59;8.05;;;3.40;;
71777;SDS011;59609;52.430;4.668;2022-10-04T01:00:28;16.05;;;4.93;;
71777;SDS011;59609;52.430;4.668;2022-10-04T01:03:07;10.23;;;4.95;;
71777;SDS011;59609;52.430;4.668;2022-10-04T01:05:43;10.85;;;4.35;;
71777;SDS011;59609;52.430;4.668;2022-10-04T01:08:17;12.65;;;5.22;;
71777;SDS011;59609;52.430;4.668;2022-10-04T01:10:51;12.07;;;4.88;;
71777;SDS011;59609;52.430;4.668;2022-10-04T01:13:19;9.07;;;4.70;;
71777;SDS011;59609;52.430;4.668;2022-10-04T01:15:55;9.45;;;4.80;;
71777;SDS011;59609;52.430;4.668;2022-10-04T01:18:28;11.07;;;5.43;;
71777;SDS011;59609;52.430;4.668;2022-10-04T01:23:30;11.68;;;4.80;;
71777;SDS011;59609;52.430;4.668;2022-10-04T01:26:03;8.70;;;4.97;;
71777;SDS011;59609;52.430;4.668;2022-10-04T01:28:32;8.80;;;4.55;;
71777;SDS011;59609;52.430;4.668;2022-10-04T01:30:58;13.18;;;5.20;;
71777;SDS011;59609;52.430;4.668;2022-10-04T01:33:24;11.02;;;4.75;;
71777;SDS011;59609;52.430;4.668;2022-10-04T01:35:49;15.63;;;5.28;;
71777;SDS011;59609;52.430;4.668;2022-10-04T01:38:15;12.93;;;5.28;;
71777;SDS011;59609;52.430;4.668;2022-10-04T01:40:44;12.48;;;5.20;;
71777;SDS011;59609;52.430;4.668;2022-10-04T01:43:16;13.77;;;4.85;;
71777;SDS011;59609;52.430;4.668;2022-10-04T01:45:49;12.15;;;5.18;;
71777;SDS011;59609;52.430;4.668;2022-10-04T01:48:21;10.23;;;5.47;;
71777;SDS011;59609;52.430;4.668;2022-10-04T01:53:21;7.67;;;4.43;;
71777;SDS011;59609;52.430;4.668;2022-10-04T01:55:52;10.90;;;5.70;;
71777;SDS011;59609;52.430;4.668;2022-10-04T02:00:56;11.63;;;6.28;;
71777;SDS011;59609;52.430;4.668;2022-10-04T02:03:32;14.75;;;5.95;;
71777;SDS011;59609;52.430;4.668;2022-10-04T02:06:03;14.38;;;6.47;;
71777;SDS011;59609;52.430;4.668;2022-10-04T02:08:32;12.60;;;6.78;;
71777;SDS011;59609;52.430;4.668;2022-10-04T02:11:02;10.35;;;6.75;;
71777;SDS011;59609;52.430;4.668;2022-10-04T02:13:36;12.48;;;6.68;;
71777;SDS011;59609;52.430;4.668;2022-10-04T02:16:07;12.95;;;5.90;;
71777;SDS011;59609;52.430;4.668;2022-10-04T02:18:35;14.38;;;6.57;;
71777;SDS011;59609;52.430;4.668;2022-10-04T02:21:03;17.63;;;8.13;;
71777;SDS011;59609;52.430;4.668;2022-10-04T02:23:30;10.57;;;6.72;;
71777;SDS011;59609;52.430;4.668;2022-10-04T02:25:57;14.40;;;7.43;;
71777;SDS011;59609;52.430;4.668;2022-10-04T02:28:23;14.63;;;7.88;;
71777;SDS011;59609;52.430;4.668;2022-10-04T02:30:49;9.40;;;6.88;;
71777;SDS011;59609;52.430;4.668;2022-10-04T02:33:39;14.25;;;6.90;;
71777;SDS011;59609;52.430;4.668;2022-10-04T02:36:06;15.40;;;7.13;;
71777;SDS011;59609;52.430;4.668;2022-10-04T02:38:34;15.10;;;8.77;;
71777;SDS011;59609;52.430;4.668;2022-10-04T02:41:27;14.90;;;7.57;;
71777;SDS011;59609;52.430;4.668;2022-10-04T02:44:07;11.80;;;7.32;;
71777;SDS011;59609;52.430;4.668;2022-10-04T02:49:40;17.05;;;8.15;;
71777;SDS011;59609;52.430;4.668;2022-10-04T02:54:54;16.88;;;8.32;;
71777;SDS011;59609;52.430;4.668;2022-10-04T02:57:26;17.63;;;6.53;;
71777;SDS011;59609;52.430;4.668;2022-10-04T03:00:29;17.65;;;8.20;;
71777;SDS011;59609;52.430;4.668;2022-10-04T03:03:12;13.40;;;5.88;;
71777;SDS011;59609;52.430;4.668;2022-10-04T03:05:46;15.00;;;7.88;;
71777;SDS011;59609;52.430;4.668;2022-10-04T03:08:30;16.55;;;9.15;;
71777;SDS011;59609;52.430;4.668;2022-10-04T03:10:58;16.88;;;9.10;;
71777;SDS011;59609;52.430;4.668;2022-10-04T03:13:26;15.38;;;8.35;;
71777;SDS011;59609;52.430;4.668;2022-10-04T03:15:52;15.43;;;8.73;;
71777;SDS011;59609;52.430;4.668;2022-10-04T03:18:18;17.85;;;8.50;;
71777;SDS011;59609;52.430;4.668;2022-10-04T03:20:45;16.63;;;8.68;;
71777;SDS011;59609;52.430;4.668;2022-10-04T03:23:12;17.35;;;7.70;;
71777;SDS011;59609;52.430;4.668;2022-10-04T03:28:16;11.02;;;7.35;;
71777;SDS011;59609;52.430;4.668;2022-10-04T03:30:45;15.32;;;7.65;;
71777;SDS011;59609;52.430;4.668;2022-10-04T03:33:18;13.82;;;7.60;;
71777;SDS011;59609;52.430;4.668;2022-10-04T03:35:46;12.93;;;7.88;;
71777;SDS011;59609;52.430;4.668;2022-10-04T03:38:15;14.07;;;7.93;;
71777;SDS011;59609;52.430;4.668;2022-10-04T03:40:44;15.13;;;8.98;;
71777;SDS011;59609;52.430;4.668;2022-10-04T03:43:15;22.48;;;8.95;;
71777;SDS011;59609;52.430;4.668;2022-10-04T03:45:42;15.57;;;8.63;;
71777;SDS011;59609;52.430;4.668;2022-10-04T03:48:08;21.65;;;8.98;;
71777;SDS011;59609;52.430;4.668;2022-10-04T03:50:39;14.85;;;8.48;;
71777;SDS011;59609;52.430;4.668;2022-10-04T03:53:13;19.77;;;9.60;;
71777;SDS011;59609;52.430;4.668;2022-10-04T03:56:01;18.13;;;9.45;;
71777;SDS011;59609;52.430;4.668;2022-10-04T03:58:32;17.77;;;9.00;;
71777;SDS011;59609;52.430;4.668;2022-10-04T04:01:09;16.10;;;10.13;;
71777;SDS011;59609;52.430;4.668;2022-10-04T04:06:15;17.60;;;9.20;;
71777;SDS011;59609;52.430;4.668;2022-10-04T04:08:43;19.35;;;9.30;;
71777;SDS011;59609;52.430;4.668;2022-10-04T04:11:22;19.65;;;9.60;;
71777;SDS011;59609;52.430;4.668;2022-10-04T04:14:05;17.95;;;8.98;;
71777;SDS011;59609;52.430;4.668;2022-10-04T04:16:36;21.88;;;10.70;;
71777;SDS011;59609;52.430;4.668;2022-10-04T04:19:03;15.13;;;9.40;;
71777;SDS011;59609;52.430;4.668;2022-10-04T04:21:35;16.83;;;10.15;;
71777;SDS011;59609;52.430;4.668;2022-10-04T04:24:02;14.60;;;9.82;;
71777;SDS011;59609;52.430;4.668;2022-10-04T04:34:21;19.02;;;10.18;;
71777;SDS011;59609;52.430;4.668;2022-10-04T04:36:49;18.63;;;10.30;;
71777;SDS011;59609;52.430;4.668;2022-10-04T04:39:17;18.15;;;10.15;;
71777;SDS011;59609;52.430;4.668;2022-10-04T04:42:05;18.60;;;10.18;;
71777;SDS011;59609;52.430;4.668;2022-10-04T04:44:38;20.73;;;10.75;;
71777;SDS011;59609;52.430;4.668;2022-10-04T04:47:14;18.70;;;11.10;;
71777;SDS011;59609;52.430;4.668;2022-10-04T04:49:53;18.10;;;10.32;;
71777;SDS011;59609;52.430;4.668;2022-10-04T04:52:23;20.77;;;10.10;;
71777;SDS011;59609;52.430;4.668;2022-10-04T04:54:52;23.67;;;12.32;;
71777;SDS011;59609;52.430;4.668;2022-10-04T04:57:19;17.75;;;11.13;;
71777;SDS011;59609;52.430;4.668;2022-10-04T04:59:47;22.88;;;11.20;;
71777;SDS011;59609;52.430;4.668;2022-10-04T05:03:18;20.63;;;11.48;;
71777;SDS011;59609;52.430;4.668;2022-10-04T05:05:20;23.42;;;10.60;;
71777;SDS011;59609;52.430;4.668;2022-10-04T05:07:48;26.50;;;10.18;;
71777;SDS011;59609;52.430;4.668;2022-10-04T05:10:33;21.48;;;12.05;;
71777;SDS011;59609;52.430;4.668;2022-10-04T05:13:00;21.77;;;11.25;;
71777;SDS011;59609;52.430;4.668;2022-10-04T05:15:30;21.13;;;11.93;;
71777;SDS011;59609;52.430;4.668;2022-10-04T05:17:59;20.77;;;12.05;;
71777;SDS011;59609;52.430;4.668;2022-10-04T05:20:26;21.80;;;11.48;;
71777;SDS011;59609;52.430;4.668;2022-10-04T05:22:52;18.95;;;11.20;;
71777;SDS011;59609;52.430;4.668;2022-10-04T05:25:30;22.15;;;11.65;;
71777;SDS011;59609;52.430;4.668;2022-10-04T05:27:57;21.38;;;12.30;;
71777;SDS011;59609;52.430;4.668;2022-10-04T05:30:28;25.83;;;12.77;;
71777;SDS011;59609;52.430;4.668;2022-10-04T05:33:00;22.63;;;12.07;;
71777;SDS011;59609;52.430;4.668;2022-10-04T05:35:29;21.90;;;12.18;;
71777;SDS011;59609;52.430;4.668;2022-10-04T05:41:44;18.88;;;11.30;;
71777;SDS011;59609;52.430;4.668;2022-10-04T05:47:10;22.42;;;12.10;;
71777;SDS011;59609;52.430;4.668;2022-10-04T05:49:41;25.75;;;13.43;;
71777;SDS011;59609;52.430;4.668;2022-10-04T05:58:00;25.13;;;12.40;;
71777;SDS011;59609;52.430;4.668;2022-10-04T06:14:33;23.73;;;12.07;;
71777;SDS011;59609;52.430;4.668;2022-10-04T06:22:21;26.17;;;11.85;;
71777;SDS011;59609;52.430;4.668;2022-10-04T06:24:55;22.48;;;12.07;;
71777;SDS011;59609;52.430;4.668;2022-10-04T06:41:28;25.85;;;12.70;;
71777;SDS011;59609;52.430;4.668;2022-10-04T06:46:47;21.20;;;11.65;;
71777;SDS011;59609;52.430;4.668;2022-10-04T07:00:13;23.90;;;12.57;;
71777;SDS011;59609;52.430;4.668;2022-10-04T07:02:44;19.80;;;11.50;;
71777;SDS011;59609;52.430;4.668;2022-10-04T07:07:54;20.88;;;10.93;;
71777;SDS011;59609;52.430;4.668;2022-10-04T07:10:46;18.27;;;10.38;;
71777;SDS011;59609;52.430;4.668;2022-10-04T07:15:57;20.17;;;10.30;;
71777;SDS011;59609;52.430;4.668;2022-10-04T07:21:21;19.33;;;10.77;;
71777;SDS011;59609;52.430;4.668;2022-10-04T07:23:55;21.33;;;10.75;;
71777;SDS011;59609;52.430;4.668;2022-10-04T07:26:44;20.38;;;11.35;;
71777;SDS011;59609;52.430;4.668;2022-10-04T07:29:22;19.98;;;10.80;;
71777;SDS011;59609;52.430;4.668;2022-10-04T07:34:38;18.23;;;9.63;;
71777;SDS011;59609;52.430;4.668;2022-10-04T07:37:10;20.70;;;11.05;;
71777;SDS011;59609;52.430;4.668;2022-10-04T07:39:51;17.40;;;9.63;;
71777;SDS011;59609;52.430;4.668;2022-10-04T07:45:34;19.98;;;10.65;;
71777;SDS011;59609;52.430;4.668;2022-10-04T07:47:49;17.65;;;10.25;;
71777;SDS011;59609;52.430;4.668;2022-10-04T07:50:18;20.00;;;10.88;;
71777;SDS011;59609;52.430;4.668;2022-10-04T07:52:49;20.90;;;10.27;;
71777;SDS011;59609;52.430;4.668;2022-10-04T08:02:52;17.95;;;9.95;;
71777;SDS011;59609;52.430;4.668;2022-10-04T08:05:47;22.73;;;10.27;;
71777;SDS011;59609;52.430;4.668;2022-10-04T08:14:23;19.98;;;10.43;;
71777;SDS011;59609;52.430;4.668;2022-10-04T08:20:11;20.10;;;10.75;;
71777;SDS011;59609;52.430;4.668;2022-10-04T08:28:26;19.20;;;10.90;;
71777;SDS011;59609;52.430;4.668;2022-10-04T08:36:31;15.95;;;10.48;;
71777;SDS011;59609;52.430;4.668;2022-10-04T08:39:02;19.25;;;10.38;;
71777;SDS011;59609;52.430;4.668;2022-10-04T08:56:35;17.00;;;9.60;;
71777;SDS011;59609;52.430;4.668;2022-10-04T09:18:18;14.80;;;9.60;;
71777;SDS011;59609;52.430;4.668;2022-10-04T09:21:09;14.45;;;9.07;;
71777;SDS011;59609;52.430;4.668;2022-10-04T09:24:04;16.13;;;8.45;;
71777;SDS011;59609;52.430;4.668;2022-10-04T09:26:44;15.70;;;9.63;;
71777;SDS011;59609;52.430;4.668;2022-10-04T09:34:48;13.38;;;8.05;;
71777;SDS011;59609;52.430;4.668;2022-10-04T09:37:31;14.07;;;8.73;;
71777;SDS011;59609;52.430;4.668;2022-10-04T09:45:50;12.88;;;7.22;;
71777;SDS011;59609;52.430;4.668;2022-10-04T09:54:40;13.27;;;8.45;;
71777;SDS011;59609;52.430;4.668;2022-10-04T10:33:45;9.43;;;6.15;;
71777;SDS011;59609;52.430;4.668;2022-10-04T10:42:50;8.98;;;6.05;;
71777;SDS011;59609;52.430;4.668;2022-10-04T10:50:56;13.05;;;6.18;;
71777;SDS011;59609;52.430;4.668;2022-10-04T11:15:31;9.63;;;5.43;;
71777;SDS011;59609;52.430;4.668;2022-10-04T11:20:58;8.40;;;3.38;;
71777;SDS011;59609;52.430;4.668;2022-10-04T11:24:00;8.52;;;4.70;;
71777;SDS011;59609;52.430;4.668;2022-10-04T11:27:00;6.60;;;4.75;;
71777;SDS011;59609;52.430;4.668;2022-10-04T11:46:54;9.35;;;5.35;;
71777;SDS011;59609;52.430;4.668;2022-10-04T11:57:57;8.07;;;5.35;;
71777;SDS011;59609;52.430;4.668;2022-10-04T12:00:45;9.43;;;4.72;;
71777;SDS011;59609;52.430;4.668;2022-10-04T12:12:10;7.25;;;4.50;;
71777;SDS011;59609;52.430;4.668;2022-10-04T12:18:24;7.28;;;4.90;;
71777;SDS011;59609;52.430;4.668;2022-10-04T12:26:54;9.63;;;4.88;;
71777;SDS011;59609;52.430;4.668;2022-10-04T12:38:16;6.85;;;4.32;;
71777;SDS011;59609;52.430;4.668;2022-10-04T12:41:14;7.38;;;4.57;;
71777;SDS011;59609;52.430;4.668;2022-10-04T12:46:24;6.83;;;4.23;;
71777;SDS011;59609;52.430;4.668;2022-10-04T12:49:30;5.90;;;3.47;;
71777;SDS011;59609;52.430;4.668;2022-10-04T12:52:15;7.25;;;4.25;;
71777;SDS011;59609;52.430;4.668;2022-10-04T12:54:44;9.45;;;5.00;;
71777;SDS011;59609;52.430;4.668;2022-10-04T12:57:35;9.88;;;5.13;;
71777;SDS011;59609;52.430;4.668;2022-10-04T13:05:31;8.07;;;4.88;;
71777;SDS011;59609;52.430;4.668;2022-10-04T13:08:12;6.53;;;4.40;;
71777;SDS011;59609;52.430;4.668;2022-10-04T13:19:51;6.75;;;5.22;;
71777;SDS011;59609;52.430;4.668;2022-10-04T13:22:42;6.40;;;3.92;;
71777;SDS011;59609;52.430;4.668;2022-10-04T13:30:48;9.10;;;4.75;;
71777;SDS011;59609;52.430;4.668;2022-10-04T13:33:23;10.00;;;5.47;;
71777;SDS011;59609;52.430;4.668;2022-10-04T13:38:35;8.93;;;5.05;;
71777;SDS011;59609;52.430;4.668;2022-10-04T13:49:40;8.20;;;5.10;;
71777;SDS011;59609;52.430;4.668;2022-10-04T13:55:25;8.48;;;5.80;;
71777;SDS011;59609;52.430;4.668;2022-10-04T14:06:42;7.15;;;5.05;;
71777;SDS011;59609;52.430;4.668;2022-10-04T14:12:23;7.28;;;5.05;;
71777;SDS011;59609;52.430;4.668;2022-10-04T14:29:18;8.60;;;5.55;;
71777;SDS011;59609;52.430;4.668;2022-10-04T14:46:27;7.38;;;5.18;;
71777;SDS011;59609;52.430;4.668;2022-10-04T14:54:43;6.32;;;4.70;;
71777;SDS011;59609;52.430;4.668;2022-10-04T15:00:08;8.98;;;4.40;;
71777;SDS011;59609;52.430;4.668;2022-10-04T15:02:46;8.00;;;4.43;;
71777;SDS011;59609;52.430;4.668;2022-10-04T15:10:54;15.35;;;4.53;;
71777;SDS011;59609;52.430;4.668;2022-10-04T15:13:40;7.85;;;4.93;;
71777;SDS011;59609;52.430;4.668;2022-10-04T15:38:49;6.63;;;4.68;;
71777;SDS011;59609;52.430;4.668;2022-10-04T15:49:11;9.73;;;4.03;;
71777;SDS011;59609;52.430;4.668;2022-10-04T16:07:31;7.68;;;5.47;;
71777;SDS011;59609;52.430;4.668;2022-10-04T16:10:17;8.63;;;5.95;;
71777;SDS011;59609;52.430;4.668;2022-10-04T16:15:39;8.48;;;5.10;;
71777;SDS011;59609;52.430;4.668;2022-10-04T16:18:28;10.13;;;5.18;;
71777;SDS011;59609;52.430;4.668;2022-10-04T16:42:40;8.38;;;5.28;;
71777;SDS011;59609;52.430;4.668;2022-10-04T16:47:48;8.82;;;5.22;;
71777;SDS011;59609;52.430;4.668;2022-10-04T16:59:42;5.38;;;4.38;;
71777;SDS011;59609;52.430;4.668;2022-10-04T17:04:58;6.13;;;4.63;;
71777;SDS011;59609;52.430;4.668;2022-10-04T17:07:42;4.90;;;3.75;;
71777;SDS011;59609;52.430;4.668;2022-10-04T17:15:47;7.10;;;3.13;;
71777;SDS011;59609;52.430;4.668;2022-10-04T17:21:21;10.77;;;3.63;;
71777;SDS011;59609;52.430;4.668;2022-10-04T17:30:10;4.72;;;2.50;;
71777;SDS011;59609;52.430;4.668;2022-10-04T17:35:12;4.80;;;2.63;;
71777;SDS011;59609;52.430;4.668;2022-10-04T17:38:15;7.75;;;2.65;;
71777;SDS011;59609;52.430;4.668;2022-10-04T17:43:23;5.63;;;2.35;;
71777;SDS011;59609;52.430;4.668;2022-10-04T17:52:12;3.92;;;2.20;;
71777;SDS011;59609;52.430;4.668;2022-10-04T17:55:04;6.97;;;2.10;;
71777;SDS011;59609;52.430;4.668;2022-10-04T17:57:53;5.57;;;2.53;;
71777;SDS011;59609;52.430;4.668;2022-10-04T18:00:26;4.65;;;2.15;;
71777;SDS011;59609;52.430;4.668;2022-10-04T18:03:17;5.03;;;2.00;;
71777;SDS011;59609;52.430;4.668;2022-10-04T18:05:59;4.72;;;1.80;;
71777;SDS011;59609;52.430;4.668;2022-10-04T18:11:24;3.72;;;2.30;;
71777;SDS011;59609;52.430;4.668;2022-10-04T18:14:03;4.63;;;2.42;;
71777;SDS011;59609;52.430;4.668;2022-10-04T18:16:45;4.97;;;1.95;;
71777;SDS011;59609;52.430;4.668;2022-10-04T18:21:53;8.88;;;1.95;;
71777;SDS011;59609;52.430;4.668;2022-10-04T18:24:27;7.55;;;2.50;;
71777;SDS011;59609;52.430;4.668;2022-10-04T18:26:57;5.43;;;2.33;;
71777;SDS011;59609;52.430;4.668;2022-10-04T18:29:36;5.63;;;2.05;;
71777;SDS011;59609;52.430;4.668;2022-10-04T18:32:15;4.85;;;1.95;;
71777;SDS011;59609;52.430;4.668;2022-10-04T18:34:58;6.40;;;2.78;;
71777;SDS011;59609;52.430;4.668;2022-10-04T18:37:28;9.45;;;2.55;;
71777;SDS011;59609;52.430;4.668;2022-10-04T18:40:01;8.35;;;2.40;;
71777;SDS011;59609;52.430;4.668;2022-10-04T18:42:39;6.90;;;2.30;;
71777;SDS011;59609;52.430;4.668;2022-10-04T18:45:40;7.45;;;2.60;;
71777;SDS011;59609;52.430;4.668;2022-10-04T18:47:59;9.65;;;2.55;;
71777;SDS011;59609;52.430;4.668;2022-10-04T18:50:38;6.50;;;2.25;;
71777;SDS011;59609;52.430;4.668;2022-10-04T18:56:07;9.98;;;2.90;;
71777;SDS011;59609;52.430;4.668;2022-10-04T19:01:36;7.78;;;2.45;;
71777;SDS011;59609;52.430;4.668;2022-10-04T19:10:34;5.43;;;2.05;;
71777;SDS011;59609;52.430;4.668;2022-10-04T19:26:56;4.57;;;1.98;;
71777;SDS011;59609;52.430;4.668;2022-10-04T19:29:52;4.30;;;1.88;;
71777;SDS011;59609;52.430;4.668;2022-10-04T19:32:22;4.55;;;2.10;;
71777;SDS011;59609;52.430;4.668;2022-10-04T19:35:05;6.50;;;1.90;;
71777;SDS011;59609;52.430;4.668;2022-10-04T19:38:01;8.75;;;2.50;;
71777;SDS011;59609;52.430;4.668;2022-10-04T19:40:44;4.70;;;2.00;;
71777;SDS011;59609;52.430;4.668;2022-10-04T19:46:22;6.78;;;2.30;;
71777;SDS011;59609;52.430;4.668;2022-10-04T19:48:55;7.07;;;1.70;;
71777;SDS011;59609;52.430;4.668;2022-10-04T19:51:25;5.20;;;2.13;;
71777;SDS011;59609;52.430;4.668;2022-10-04T19:54:01;8.00;;;2.00;;
71777;SDS011;59609;52.430;4.668;2022-10-04T19:56:44;6.75;;;2.10;;
71777;SDS011;59609;52.430;4.668;2022-10-04T19:59:15;5.82;;;2.28;;
71777;SDS011;59609;52.430;4.668;2022-10-04T20:01:43;4.40;;;1.92;;
71777;SDS011;59609;52.430;4.668;2022-10-04T20:04:10;7.30;;;2.55;;
71777;SDS011;59609;52.430;4.668;2022-10-04T20:06:57;4.03;;;2.30;;
71777;SDS011;59609;52.430;4.668;2022-10-04T20:12:02;4.45;;;2.40;;
71777;SDS011;59609;52.430;4.668;2022-10-04T20:21:52;5.93;;;2.05;;
71777;SDS011;59609;52.430;4.668;2022-10-04T20:27:03;7.75;;;2.08;;
71777;SDS011;59609;52.430;4.668;2022-10-04T20:32:04;5.20;;;2.20;;
71777;SDS011;59609;52.430;4.668;2022-10-04T20:34:33;5.80;;;2.10;;
71777;SDS011;59609;52.430;4.668;2022-10-04T20:37:12;11.20;;;1.77;;
71777;SDS011;59609;52.430;4.668;2022-10-04T20:47:52;7.00;;;2.58;;
71777;SDS011;59609;52.430;4.668;2022-10-04T20:50:44;4.43;;;1.67;;
71777;SDS011;59609;52.430;4.668;2022-10-04T20:55:49;5.40;;;2.05;;
71777;SDS011;59609;52.430;4.668;2022-10-04T20:58:23;5.85;;;2.00;;
71777;SDS011;59609;52.430;4.668;2022-10-04T21:00:49;4.45;;;2.03;;
71777;SDS011;59609;52.430;4.668;2022-10-04T21:03:17;8.18;;;1.48;;
71777;SDS011;59609;52.430;4.668;2022-10-04T21:05:43;6.82;;;2.22;;
71777;SDS011;59609;52.430;4.668;2022-10-04T21:08:10;4.20;;;1.95;;
71777;SDS011;59609;52.430;4.668;2022-10-04T21:13:39;5.03;;;1.65;;
71777;SDS011;59609;52.430;4.668;2022-10-04T21:16:07;3.30;;;1.90;;
71777;SDS011;59609;52.430;4.668;2022-10-04T21:18:33;3.67;;;1.70;;
71777;SDS011;59609;52.430;4.668;2022-10-04T21:21:00;10.13;;;2.20;;
71777;SDS011;59609;52.430;4.668;2022-10-04T21:23:32;5.15;;;1.92;;
71777;SDS011;59609;52.430;4.668;2022-10-04T21:29:06;4.30;;;1.80;;
71777;SDS011;59609;52.430;4.668;2022-10-04T21:31:31;4.10;;;1.27;;
71777;SDS011;59609;52.430;4.668;2022-10-04T21:33:57;5.65;;;1.98;;
71777;SDS011;59609;52.430;4.668;2022-10-04T21:36:23;2.28;;;1.77;;
71777;SDS011;59609;52.430;4.668;2022-10-04T21:38:48;3.88;;;1.77;;
71777;SDS011;59609;52.430;4.668;2022-10-04T21:41:13;6.75;;;1.83;;
71777;SDS011;59609;52.430;4.668;2022-10-04T21:43:39;3.55;;;1.73;;
71777;SDS011;59609;52.430;4.668;2022-10-04T21:46:06;3.33;;;1.67;;
71777;SDS011;59609;52.430;4.668;2022-10-04T21:48:31;3.53;;;1.88;;
71777;SDS011;59609;52.430;4.668;2022-10-04T21:50:56;6.60;;;1.88;;
71777;SDS011;59609;52.430;4.668;2022-10-04T21:53:21;5.55;;;1.60;;
71777;SDS011;59609;52.430;4.668;2022-10-04T21:55:47;3.13;;;1.90;;
71777;SDS011;59609;52.430;4.668;2022-10-04T21:58:13;3.33;;;1.58;;
71777;SDS011;59609;52.430;4.668;2022-10-04T22:00:38;1.77;;;1.67;;
71777;SDS011;59609;52.430;4.668;2022-10-04T22:03:03;3.38;;;1.95;;
71777;SDS011;59609;52.430;4.668;2022-10-04T22:05:29;3.90;;;1.95;;
71777;SDS011;59609;52.430;4.668;2022-10-04T22:07:55;3.45;;;1.80;;
71777;SDS011;59609;52.430;4.668;2022-10-04T22:10:22;4.78;;;2.53;;
71777;SDS011;59609;52.430;4.668;2022-10-04T22:12:47;3.03;;;1.98;;
71777;SDS011;59609;52.430;4.668;2022-10-04T22:15:13;3.67;;;2.05;;
71777;SDS011;59609;52.430;4.668;2022-10-04T22:17:39;5.00;;;1.95;;
71777;SDS011;59609;52.430;4.668;2022-10-04T22:20:04;2.88;;;2.22;;
71777;SDS011;59609;52.430;4.668;2022-10-04T22:22:30;4.22;;;2.45;;
71777;SDS011;59609;52.430;4.668;2022-10-04T22:24:56;2.83;;;2.00;;
71777;SDS011;59609;52.430;4.668;2022-10-04T22:27:22;2.53;;;2.08;;
71777;SDS011;59609;52.430;4.668;2022-10-04T22:29:48;5.50;;;2.35;;
71777;SDS011;59609;52.430;4.668;2022-10-04T22:32:21;5.53;;;2.47;;
71777;SDS011;59609;52.430;4.668;2022-10-04T22:34:51;3.38;;;2.50;;
71777;SDS011;59609;52.430;4.668;2022-10-04T22:37:23;6.28;;;2.10;;
71777;SDS011;59609;52.430;4.668;2022-10-04T22:39:49;4.63;;;2.00;;
71777;SDS011;59609;52.430;4.668;2022-10-04T22:42:16;2.22;;;1.90;;
71777;SDS011;59609;52.430;4.668;2022-10-04T22:44:41;5.28;;;2.40;;
71777;SDS011;59609;52.430;4.668;2022-10-04T22:47:13;4.20;;;2.20;;
71777;SDS011;59609;52.430;4.668;2022-10-04T22:49:40;4.50;;;2.38;;
71777;SDS011;59609;52.430;4.668;2022-10-04T22:54:40;4.28;;;2.35;;
71777;SDS011;59609;52.430;4.668;2022-10-04T22:57:08;4.22;;;1.90;;
71777;SDS011;59609;52.430;4.668;2022-10-04T22:59:40;5.32;;;1.60;;
71777;SDS011;59609;52.430;4.668;2022-10-04T23:02:29;6.15;;;1.85;;
71777;SDS011;59609;52.430;4.668;2022-10-04T23:05:00;4.70;;;1.90;;
71777;SDS011;59609;52.430;4.668;2022-10-04T23:07:36;5.18;;;2.17;;
71777;SDS011;59609;52.430;4.668;2022-10-04T23:10:01;3.63;;;1.77;;
71777;SDS011;59609;52.430;4.668;2022-10-04T23:12:27;4.32;;;1.83;;
71777;SDS011;59609;52.430;4.668;2022-10-04T23:14:52;5.77;;;2.00;;
71777;SDS011;59609;52.430;4.668;2022-10-04T23:19:57;3.75;;;1.80;;
71777;SDS011;59609;52.430;4.668;2022-10-04T23:24:54;4.63;;;1.55;;
71777;SDS011;59609;52.430;4.668;2022-10-04T23:27:20;6.10;;;2.03;;
71777;SDS011;59609;52.430;4.668;2022-10-04T23:29:46;5.82;;;1.80;;
71777;SDS011;59609;52.430;4.668;2022-10-04T23:32:14;2.88;;;1.88;;
71777;SDS011;59609;52.430;4.668;2022-10-04T23:34:42;3.88;;;1.70;;
71777;SDS011;59609;52.430;4.668;2022-10-04T23:39:44;2.60;;;1.52;;
71777;SDS011;59609;52.430;4.668;2022-10-04T23:42:12;3.92;;;1.60;;
71777;SDS011;59609;52.430;4.668;2022-10-04T23:44:39;3.75;;;1.63;;
71777;SDS011;59609;52.430;4.668;2022-10-04T23:47:07;5.28;;;1.73;;
71777;SDS011;59609;52.430;4.668;2022-10-04T23:49:37;4.20;;;1.60;;
71777;SDS011;59609;52.430;4.668;2022-10-04T23:52:02;1.52;;;1.42;;
71777;SDS011;59609;52.430;4.668;2022-10-04T23:54:28;1.77;;;1.55;;
71777;SDS011;59609;52.430;4.668;2022-10-04T23:56:53;1.70;;;1.60;;
71777;SDS011;59609;52.430;4.668;2022-10-04T23:59:20;5.05;;;1.70;;
